Terminal Aerodrome Forecast
Issued by NWS Grand Forks, ND

Home | Current Version | Previous Version | Graphics & Text | Print | Product List | Glossary On
Versions: 1 2 3 4 5 6 7 8 9 10 11 12 13 14 15 16 17 18 19 20 21 22 23 24
000
FTUS43 KFGF 031135
TAFGFK
TAF
KGFK 031135Z 0312/0412 19013KT P6SM BKN015
     FM031700 18013KT P6SM BKN025
     FM032300 16015KT P6SM BKN020
     FM040000 16012KT P6SM BKN015
     FM040600 17010KT P6SM BKN008
     FM041000 19009KT 3SM -SN OVC010=

USA.gov is the U.S. government's official web portal to all federal, state and local government web resources and services.